createdAt,value
2022-11-13T00:02:00.878Z,7.47
2022-11-13T00:04:47.433Z,7.45
2022-11-13T00:07:33.889Z,7.65
2022-11-13T00:10:20.632Z,7.82
2022-11-13T00:13:07.285Z,6.88
2022-11-13T00:15:58.640Z,8.15
2022-11-13T00:18:47.600Z,6.82
2022-11-13T00:21:34.279Z,7.55
2022-11-13T00:24:21.509Z,7.40
2022-11-13T00:27:08.610Z,6.70
2022-11-13T00:29:55.333Z,7.55
2022-11-13T00:32:42.108Z,7.57
2022-11-13T00:35:30.259Z,7.05
2022-11-13T00:38:16.838Z,7.03
2022-11-13T00:41:04.060Z,7.40
2022-11-13T00:43:50.709Z,7.55
2022-11-13T00:46:37.434Z,7.32
2022-11-13T00:49:23.804Z,7.43
2022-11-13T00:52:11.674Z,7.45
2022-11-13T00:54:58.247Z,7.55
2022-11-13T00:57:44.844Z,7.47
2022-11-13T01:00:32.339Z,6.43
2022-11-13T01:03:19.483Z,7.03
2022-11-13T01:06:12.339Z,6.78
2022-11-13T01:09:00.829Z,7.53
2022-11-13T01:11:47.498Z,7.35
2022-11-13T01:14:34.193Z,7.63
2022-11-13T01:17:20.839Z,7.13
2022-11-13T01:20:07.806Z,7.70
2022-11-13T01:22:54.574Z,7.35
2022-11-13T01:25:43.526Z,7.10
2022-11-13T01:28:30.243Z,7.13
2022-11-13T01:31:19.318Z,6.85
2022-11-13T01:34:06.021Z,7.35
2022-11-13T01:36:53.148Z,7.05
2022-11-13T01:39:40.379Z,6.15
2022-11-13T01:42:28.649Z,6.25
2022-11-13T01:46:06.536Z,7.00
2022-11-13T01:48:59.487Z,7.85
2022-11-13T01:51:50.480Z,7.18
2022-11-13T01:54:42.006Z,6.50
2022-11-13T01:57:30.515Z,7.15
2022-11-13T02:00:17.805Z,7.15
2022-11-13T02:03:05.284Z,6.25
2022-11-13T02:05:52.563Z,7.63
2022-11-13T02:08:39.819Z,7.05
2022-11-13T02:11:26.898Z,6.28
2022-11-13T02:14:16.031Z,7.03
2022-11-13T02:17:08.152Z,5.60
2022-11-13T02:19:59.807Z,6.72
2022-11-13T02:22:53.144Z,6.53
2022-11-13T02:25:42.951Z,6.15
2022-11-13T02:28:30.256Z,6.13
2022-11-13T02:31:17.418Z,5.78
2022-11-13T02:34:04.564Z,6.35
2022-11-13T02:36:51.499Z,6.03
2022-11-13T02:39:38.148Z,6.68
2022-11-13T02:42:26.319Z,6.55
2022-11-13T02:45:13.155Z,6.20
2022-11-13T02:48:01.421Z,6.60
2022-11-13T02:50:48.728Z,7.63
2022-11-13T02:53:35.611Z,6.45
2022-11-13T02:56:23.186Z,8.57
2022-11-13T02:59:11.419Z,6.32
2022-11-13T03:01:57.893Z,6.45
2022-11-13T03:05:10.979Z,6.88
2022-11-13T03:07:51.245Z,7.03
2022-11-13T03:10:37.951Z,5.95
2022-11-13T03:13:24.740Z,7.55
2022-11-13T03:16:14.787Z,6.03
2022-11-13T03:19:01.716Z,7.28
2022-11-13T03:21:48.239Z,8.10
2022-11-13T03:24:35.464Z,7.55
2022-11-13T03:27:22.387Z,6.80
2022-11-13T03:30:10.472Z,7.43
2022-11-13T03:32:59.182Z,8.25
2022-11-13T03:35:47.194Z,8.57
2022-11-13T03:38:33.861Z,7.90
2022-11-13T03:41:20.332Z,7.95
2022-11-13T03:44:07.166Z,8.50
2022-11-13T03:46:54.153Z,7.57
2022-11-13T03:49:41.963Z,6.70
2022-11-13T03:52:28.520Z,6.88
2022-11-13T03:55:15.127Z,8.15
2022-11-13T03:58:01.968Z,8.07
2022-11-13T04:00:49.302Z,7.43
2022-11-13T04:03:36.815Z,7.57
2022-11-13T04:06:25.006Z,8.05
2022-11-13T04:09:12.172Z,8.43
2022-11-13T04:11:58.872Z,7.53
2022-11-13T04:14:45.972Z,7.45
2022-11-13T04:17:32.780Z,7.85
2022-11-13T04:20:19.372Z,10.10
2022-11-13T04:23:11.501Z,7.25
2022-11-13T04:25:59.012Z,9.70
2022-11-13T04:28:46.036Z,8.70
2022-11-13T04:31:32.839Z,9.35
2022-11-13T04:34:19.727Z,9.00
2022-11-13T04:37:06.571Z,8.75
2022-11-13T04:39:54.396Z,8.43
2022-11-13T04:42:49.045Z,8.90
2022-11-13T04:45:36.079Z,9.00
2022-11-13T04:48:22.632Z,8.85
2022-11-13T04:51:09.426Z,8.82
2022-11-13T04:53:55.967Z,8.73
2022-11-13T04:56:44.308Z,8.60
2022-11-13T04:59:31.123Z,10.02
2022-11-13T05:02:18.014Z,10.90
2022-11-13T05:05:05.637Z,9.57
2022-11-13T05:07:53.850Z,9.82
2022-11-13T05:10:40.208Z,11.90
2022-11-13T05:13:31.498Z,12.20
2022-11-13T05:16:17.946Z,15.02
2022-11-13T05:19:06.998Z,12.38
2022-11-13T05:21:53.937Z,12.88
2022-11-13T05:24:40.442Z,13.88
2022-11-13T05:27:26.958Z,14.18
2022-11-13T05:30:15.442Z,13.75
2022-11-13T05:33:01.843Z,12.90
2022-11-13T05:35:48.614Z,14.02
2022-11-13T05:38:35.379Z,16.17
2022-11-13T05:41:23.683Z,14.55
2022-11-13T05:44:10.237Z,13.48
2022-11-13T05:46:58.064Z,13.23
2022-11-13T05:49:44.590Z,14.45
2022-11-13T05:52:31.241Z,15.60
2022-11-13T05:55:22.186Z,14.75
2022-11-13T05:58:09.688Z,13.38
2022-11-13T06:01:06.548Z,16.10
2022-11-13T06:03:56.949Z,14.05
2022-11-13T06:06:43.767Z,13.30
2022-11-13T06:09:30.498Z,13.15
2022-11-13T06:12:17.299Z,12.93
2022-11-13T06:15:03.899Z,13.70
2022-11-13T06:17:50.362Z,13.50
2022-11-13T06:20:38.532Z,14.93
2022-11-13T06:23:25.233Z,14.73
2022-11-13T06:26:14.638Z,13.63
2022-11-13T06:29:02.037Z,13.70
2022-11-13T06:31:48.854Z,14.55
2022-11-13T06:34:35.693Z,14.05
2022-11-13T06:37:23.778Z,14.02
2022-11-13T06:40:11.568Z,14.02
2022-11-13T06:42:58.415Z,12.60
2022-11-13T06:45:45.020Z,14.82
2022-11-13T06:48:31.805Z,14.15
2022-11-13T06:51:20.313Z,15.13
2022-11-13T06:54:08.507Z,14.57
2022-11-13T06:56:55.216Z,15.70
2022-11-13T06:59:43.618Z,13.63
2022-11-13T07:02:32.089Z,13.52
2022-11-13T07:05:19.017Z,14.63
2022-11-13T07:08:05.479Z,14.43
2022-11-13T07:10:57.827Z,14.88
2022-11-13T07:13:45.069Z,13.93
2022-11-13T07:16:56.195Z,15.63
2022-11-13T07:19:38.336Z,14.63
2022-11-13T07:22:25.000Z,13.95
2022-11-13T07:25:11.851Z,14.63
2022-11-13T07:28:00.154Z,12.90
2022-11-13T07:30:47.086Z,13.52
2022-11-13T07:33:34.128Z,12.65
2022-11-13T07:36:20.623Z,14.38
2022-11-13T07:39:07.399Z,13.32
2022-11-13T07:41:53.930Z,14.60
2022-11-13T07:44:54.564Z,14.18
2022-11-13T07:47:42.600Z,13.70
2022-11-13T07:50:31.578Z,15.43
2022-11-13T07:53:18.698Z,13.27
2022-11-13T07:56:06.152Z,13.07
2022-11-13T07:58:52.691Z,15.27
2022-11-13T08:01:40.746Z,13.18
2022-11-13T08:04:27.435Z,13.82
2022-11-13T08:07:14.100Z,16.00
2022-11-13T08:10:01.043Z,15.57
2022-11-13T08:12:48.213Z,14.23
2022-11-13T08:15:36.070Z,15.32
2022-11-13T08:18:23.827Z,15.50
2022-11-13T08:21:14.746Z,14.75
2022-11-13T08:24:01.631Z,14.32
2022-11-13T08:26:48.282Z,15.43
2022-11-13T08:29:37.264Z,14.82
2022-11-13T08:32:24.411Z,15.75
2022-11-13T08:35:17.319Z,14.60
2022-11-13T08:38:06.875Z,14.00
2022-11-13T08:40:54.012Z,14.70
2022-11-13T08:43:40.636Z,14.50
2022-11-13T08:46:27.057Z,17.08
2022-11-13T08:49:13.928Z,15.52
2022-11-13T08:52:02.367Z,16.75
2022-11-13T08:54:49.266Z,17.23
2022-11-13T08:57:35.623Z,14.70
2022-11-13T09:00:22.911Z,17.05
2022-11-13T09:03:12.057Z,15.95
2022-11-13T09:05:58.890Z,15.77
2022-11-13T09:08:47.051Z,15.05
2022-11-13T09:11:33.850Z,16.13
2022-11-13T09:14:20.608Z,16.13
2022-11-13T09:17:07.534Z,15.27
2022-11-13T09:19:54.164Z,15.98
2022-11-13T09:22:40.571Z,15.95
2022-11-13T09:25:36.876Z,14.98
2022-11-13T09:28:24.136Z,14.07
2022-11-13T09:31:11.250Z,15.48
2022-11-13T09:33:57.888Z,14.75
2022-11-13T09:36:44.616Z,14.57
2022-11-13T09:39:31.339Z,14.93
2022-11-13T09:42:23.075Z,16.00
2022-11-13T09:45:15.923Z,15.20
2022-11-13T09:48:13.364Z,15.38
2022-11-13T09:51:05.483Z,15.55
2022-11-13T09:53:52.566Z,14.80
2022-11-13T09:56:44.550Z,14.55
2022-11-13T09:59:38.690Z,14.70
2022-11-13T10:02:34.986Z,14.65
2022-11-13T10:05:24.975Z,14.30
2022-11-13T10:08:15.729Z,14.40
2022-11-13T10:11:10.419Z,15.15
2022-11-13T10:14:00.900Z,15.80
2022-11-13T10:16:53.552Z,15.55
2022-11-13T10:19:46.767Z,15.23
2022-11-13T10:22:38.300Z,14.55
2022-11-13T10:25:27.992Z,13.98
2022-11-13T10:31:25.539Z,15.13
2022-11-13T10:34:14.679Z,15.23
2022-11-13T10:37:21.554Z,15.35
2022-11-13T10:40:09.227Z,15.00
2022-11-13T10:42:55.863Z,15.73
2022-11-13T10:45:42.929Z,13.48
2022-11-13T10:48:32.822Z,15.20
2022-11-13T10:51:27.351Z,15.97
2022-11-13T10:54:26.046Z,17.10
2022-11-13T10:57:30.946Z,15.70
2022-11-13T11:00:23.206Z,15.43
2022-11-13T11:03:10.744Z,16.23
2022-11-13T11:05:59.111Z,14.70
2022-11-13T11:08:47.151Z,15.50
2022-11-13T11:11:51.123Z,14.63
2022-11-13T11:14:43.039Z,14.77
2022-11-13T11:17:35.255Z,14.30
2022-11-13T11:20:27.900Z,14.70
2022-11-13T11:23:23.837Z,14.67
2022-11-13T11:26:17.387Z,14.10
2022-11-13T11:29:14.213Z,15.10
2022-11-13T11:32:10.333Z,15.03
2022-11-13T11:35:01.172Z,14.57
2022-11-13T11:37:56.822Z,14.70
2022-11-13T11:40:46.348Z,15.02
2022-11-13T11:43:42.922Z,14.70
2022-11-13T11:46:31.075Z,14.70
2022-11-13T11:49:17.554Z,16.30
2022-11-13T11:52:14.141Z,16.00
2022-11-13T11:55:14.298Z,16.00
2022-11-13T11:58:10.551Z,16.05
2022-11-13T12:01:07.611Z,14.57
2022-11-13T12:04:10.266Z,13.85
2022-11-13T12:07:07.593Z,15.80
2022-11-13T12:10:04.147Z,16.23
2022-11-13T12:13:01.652Z,15.77
2022-11-13T12:15:53.411Z,13.00
2022-11-13T12:18:54.588Z,14.63
2022-11-13T12:21:49.212Z,15.18
2022-11-13T12:24:59.571Z,15.50
2022-11-13T12:27:51.998Z,14.82
2022-11-13T12:30:47.652Z,14.27
2022-11-13T12:33:43.304Z,13.20
2022-11-13T12:36:32.248Z,14.02
2022-11-13T12:39:35.294Z,15.50
2022-11-13T12:42:30.192Z,15.68
2022-11-13T12:45:25.932Z,15.57
2022-11-13T12:48:23.671Z,14.95
2022-11-13T12:51:11.983Z,15.45
2022-11-13T12:54:00.337Z,15.13
2022-11-13T12:56:47.166Z,14.50
2022-11-13T12:59:36.922Z,13.30
2022-11-13T13:02:33.191Z,14.98
2022-11-13T13:05:30.495Z,14.63
2022-11-13T13:08:32.752Z,13.38
2022-11-13T13:11:28.076Z,14.97
2022-11-13T13:14:34.543Z,14.70
2022-11-13T13:17:24.494Z,13.43
2022-11-13T13:20:34.291Z,12.43
2022-11-13T13:23:29.207Z,13.07
2022-11-13T13:26:18.977Z,13.17
2022-11-13T13:29:18.048Z,16.27
2022-11-13T13:32:19.421Z,15.43
2022-11-13T13:35:16.445Z,14.40
2022-11-13T13:38:12.600Z,15.70
2022-11-13T13:41:19.538Z,15.63
2022-11-13T13:44:27.326Z,17.90
2022-11-13T13:47:23.178Z,15.10
2022-11-13T13:50:15.791Z,14.33
2022-11-13T13:53:03.969Z,14.20
2022-11-13T13:55:54.068Z,14.20
2022-11-13T13:58:41.473Z,15.27
2022-11-13T14:01:31.166Z,15.87
2022-11-13T14:04:21.698Z,13.57
2022-11-13T14:07:21.494Z,16.43
2022-11-13T14:10:15.660Z,15.27
2022-11-13T14:13:02.017Z,17.03
2022-11-13T14:15:48.923Z,18.70
2022-11-13T14:18:37.101Z,15.20
2022-11-13T14:21:25.051Z,18.67
2022-11-13T14:24:19.786Z,17.30
2022-11-13T14:27:09.651Z,15.20
2022-11-13T14:29:58.329Z,15.13
2022-11-13T14:32:47.333Z,15.83
2022-11-13T14:35:35.556Z,16.33
2022-11-13T14:38:25.732Z,15.67
2022-11-13T14:41:24.470Z,15.27
2022-11-13T14:44:12.804Z,15.73
2022-11-13T14:47:05.013Z,17.63
2022-11-13T14:49:51.584Z,18.50
2022-11-13T14:52:39.690Z,17.53
2022-11-13T14:55:28.696Z,17.13
2022-11-13T14:58:15.844Z,18.50
2022-11-13T15:01:16.091Z,16.65
2022-11-13T15:04:03.107Z,18.02
2022-11-13T15:06:50.910Z,18.75
2022-11-13T15:09:39.205Z,18.70
2022-11-13T15:12:26.458Z,18.85
2022-11-13T15:15:16.290Z,21.50
2022-11-13T15:18:04.186Z,22.88
2022-11-13T15:20:50.671Z,22.15
2022-11-13T15:23:37.579Z,22.70
2022-11-13T15:26:25.928Z,21.13
2022-11-13T15:29:12.421Z,23.73
2022-11-13T15:31:59.368Z,20.02
2022-11-13T15:34:45.930Z,21.85
2022-11-13T15:37:33.200Z,20.42
2022-11-13T15:40:20.092Z,21.27
2022-11-13T15:43:15.495Z,19.48
2022-11-13T15:46:02.085Z,19.85
2022-11-13T15:48:49.739Z,21.65
2022-11-13T15:51:42.273Z,22.15
2022-11-13T15:54:32.612Z,22.08
2022-11-13T15:57:21.727Z,23.92
2022-11-13T16:00:15.337Z,26.10
2022-11-13T16:03:04.474Z,24.25
2022-11-13T16:05:51.428Z,23.55
2022-11-13T16:08:38.223Z,21.83
2022-11-13T16:11:25.113Z,21.88
2022-11-13T16:14:11.692Z,24.58
2022-11-13T16:17:00.130Z,23.45
2022-11-13T16:19:48.926Z,22.13
2022-11-13T16:22:35.451Z,23.80
2022-11-13T16:25:23.469Z,23.48
2022-11-13T16:28:16.213Z,24.50
2022-11-13T16:31:03.402Z,24.73
2022-11-13T16:33:52.196Z,23.85
2022-11-13T16:36:39.107Z,24.75
2022-11-13T16:39:25.591Z,26.35
2022-11-13T16:42:12.506Z,26.23
2022-11-13T16:44:58.848Z,28.33
2022-11-13T16:47:46.469Z,25.85
2022-11-13T16:50:36.927Z,24.83
2022-11-13T16:53:23.390Z,28.25
2022-11-13T16:56:15.130Z,30.48
2022-11-13T16:59:01.952Z,30.55
2022-11-13T17:01:48.382Z,29.65
2022-11-13T17:04:35.181Z,32.38
2022-11-13T17:07:23.675Z,37.33
2022-11-13T17:13:20.595Z,38.90
2022-11-13T17:16:07.477Z,38.50
2022-11-13T17:18:54.612Z,35.05
2022-11-13T17:21:44.447Z,37.42
2022-11-13T17:24:32.719Z,37.85
2022-11-13T17:27:19.714Z,35.35
2022-11-13T17:30:07.334Z,35.38
2022-11-13T17:32:54.219Z,35.08
2022-11-13T17:35:40.761Z,35.00
2022-11-13T17:38:28.431Z,34.83
2022-11-13T17:41:17.994Z,33.30
2022-11-13T17:44:05.244Z,36.45
2022-11-13T17:46:52.035Z,40.13
2022-11-13T17:49:38.526Z,40.17
2022-11-13T17:52:25.258Z,40.63
2022-11-13T17:55:13.982Z,45.72
2022-11-13T17:58:02.972Z,42.33
2022-11-13T18:00:49.933Z,44.47
2022-11-13T18:03:36.734Z,42.85
2022-11-13T18:06:24.158Z,44.30
2022-11-13T18:09:11.116Z,46.60
2022-11-13T18:11:57.862Z,43.50
2022-11-13T18:14:52.201Z,45.53
2022-11-13T18:17:39.003Z,44.17
2022-11-13T18:20:25.898Z,44.42
2022-11-13T18:23:12.783Z,42.65
2022-11-13T18:26:07.855Z,43.30
2022-11-13T18:28:54.520Z,43.88
2022-11-13T18:31:42.928Z,42.53
2022-11-13T18:34:30.074Z,46.75
2022-11-13T18:37:16.818Z,44.17
2022-11-13T18:40:03.437Z,44.53
2022-11-13T18:42:50.915Z,42.17
2022-11-13T18:45:37.646Z,47.63
2022-11-13T18:48:26.109Z,44.15
2022-11-13T18:51:14.749Z,45.22
2022-11-13T18:54:03.266Z,44.72
2022-11-13T18:56:52.297Z,44.53
2022-11-13T18:59:39.116Z,47.90
2022-11-13T19:02:26.219Z,60.70
2022-11-13T19:05:14.584Z,49.17
2022-11-13T19:08:01.261Z,48.88
2022-11-13T19:10:48.016Z,46.53
2022-11-13T19:13:35.147Z,49.47
2022-11-13T19:16:23.686Z,50.10
2022-11-13T19:19:16.655Z,48.28
2022-11-13T19:22:04.558Z,47.80
2022-11-13T19:24:51.502Z,46.22
2022-11-13T19:27:38.364Z,47.05
2022-11-13T19:30:24.970Z,49.17
2022-11-13T19:33:11.714Z,50.63
2022-11-13T19:35:58.135Z,46.85
2022-11-13T19:38:46.458Z,47.35
2022-11-13T19:41:33.579Z,46.58
2022-11-13T19:44:20.457Z,47.05
2022-11-13T19:47:07.281Z,47.47
2022-11-13T19:49:53.841Z,48.03
2022-11-13T19:52:40.564Z,46.80
2022-11-13T19:55:29.130Z,44.75
2022-11-13T19:58:15.913Z,45.72
2022-11-13T20:01:09.781Z,46.63
2022-11-13T20:03:57.780Z,41.35
2022-11-13T20:06:44.437Z,43.55
2022-11-13T20:09:31.542Z,43.47
2022-11-13T20:12:19.460Z,44.83
2022-11-13T20:15:06.983Z,43.25
2022-11-13T20:17:53.425Z,45.42
2022-11-13T20:20:44.375Z,46.33
2022-11-13T20:23:31.615Z,40.90
2022-11-13T20:26:19.211Z,43.30
2022-11-13T20:29:07.217Z,39.92
2022-11-13T20:31:53.662Z,44.33
2022-11-13T20:34:40.399Z,42.42
2022-11-13T20:37:27.308Z,47.50
2022-11-13T20:40:14.062Z,46.67
2022-11-13T20:43:00.562Z,45.40
2022-11-13T20:45:48.814Z,51.83
2022-11-13T20:48:35.399Z,51.92
2022-11-13T20:51:26.543Z,47.70
2022-11-13T20:54:14.018Z,48.72
2022-11-13T20:57:00.811Z,47.95
2022-11-13T20:59:47.403Z,50.08
2022-11-13T21:02:35.397Z,48.15
2022-11-13T21:05:22.424Z,47.50
2022-11-13T21:08:11.467Z,45.95
2022-11-13T21:11:00.305Z,47.20
2022-11-13T21:13:49.012Z,44.15
2022-11-13T21:16:35.849Z,43.47
2022-11-13T21:19:24.759Z,41.33
2022-11-13T21:22:11.378Z,40.40
2022-11-13T21:24:58.256Z,40.05
2022-11-13T21:27:44.748Z,40.47
2022-11-13T21:30:31.563Z,42.05
2022-11-13T21:33:18.037Z,45.95
2022-11-13T21:36:07.971Z,41.05
2022-11-13T21:38:56.108Z,42.47
2022-11-13T21:41:42.806Z,44.78
2022-11-13T21:44:29.666Z,43.22
2022-11-13T21:47:16.595Z,42.97
2022-11-13T21:50:03.255Z,47.63
2022-11-13T21:52:50.946Z,44.83
2022-11-13T21:55:37.464Z,45.63
2022-11-13T21:58:31.356Z,46.17
2022-11-13T22:01:18.217Z,47.22
2022-11-13T22:04:04.978Z,49.63
2022-11-13T22:06:51.997Z,48.78
2022-11-13T22:09:40.176Z,47.90
2022-11-13T22:12:26.537Z,48.47
2022-11-13T22:15:13.077Z,46.33
2022-11-13T22:18:00.071Z,47.45
2022-11-13T22:20:48.841Z,47.92
2022-11-13T22:23:35.904Z,45.05
2022-11-13T22:26:25.788Z,46.33
2022-11-13T22:29:13.095Z,44.88
2022-11-13T22:31:59.698Z,40.75
2022-11-13T22:34:46.447Z,37.13
2022-11-13T22:37:33.327Z,40.30
2022-11-13T22:40:19.886Z,43.70
2022-11-13T22:43:08.063Z,44.03
2022-11-13T22:45:54.940Z,45.60
2022-11-13T22:48:42.988Z,44.00
2022-11-13T22:51:31.407Z,45.53
2022-11-13T22:54:17.951Z,41.10
2022-11-13T22:57:05.181Z,41.88
2022-11-13T22:59:53.536Z,39.67
2022-11-13T23:02:45.912Z,43.75
2022-11-13T23:05:35.984Z,42.78
2022-11-13T23:08:22.432Z,44.58
2022-11-13T23:11:12.987Z,43.67
2022-11-13T23:14:02.081Z,45.25
2022-11-13T23:16:50.218Z,46.33
2022-11-13T23:19:36.712Z,44.13
2022-11-13T23:22:23.618Z,45.05
2022-11-13T23:25:11.129Z,45.92
2022-11-13T23:27:57.810Z,44.95
2022-11-13T23:30:44.509Z,45.45
2022-11-13T23:33:33.148Z,41.83
2022-11-13T23:36:20.204Z,41.45
2022-11-13T23:39:06.906Z,40.83
2022-11-13T23:41:53.484Z,42.53
2022-11-13T23:44:39.987Z,39.47
2022-11-13T23:47:26.724Z,44.67
2022-11-13T23:50:15.530Z,40.35
2022-11-13T23:53:02.076Z,43.67
2022-11-13T23:55:48.692Z,45.17
2022-11-13T23:58:35.592Z,48.10
